createdAt,value
2023-04-01T00:00:47.185Z,8.50
2023-04-01T00:03:51.250Z,8.50
2023-04-01T00:06:54.496Z,8.40
2023-04-01T00:09:57.484Z,8.40
2023-04-01T00:13:00.569Z,8.40
2023-04-01T00:16:17.675Z,8.30
2023-04-01T00:19:23.656Z,8.20
2023-04-01T00:22:28.178Z,8.20
2023-04-01T00:25:31.611Z,8.30
2023-04-01T00:28:37.285Z,8.40
2023-04-01T00:31:40.857Z,8.40
2023-04-01T00:34:45.768Z,8.50
2023-04-01T00:37:48.966Z,8.60
2023-04-01T00:40:58.605Z,8.60
2023-04-01T00:44:24.647Z,8.70
2023-04-01T00:47:28.976Z,8.80
2023-04-01T00:50:33.570Z,8.90
2023-04-01T00:53:41.588Z,8.90
2023-04-01T00:56:57.273Z,9.00
2023-04-01T01:00:01.076Z,9.10
2023-04-01T01:03:04.618Z,9.10
2023-04-01T01:06:24.592Z,9.10
2023-04-01T01:09:54.282Z,9.10
2023-04-01T01:13:15.708Z,9.20
2023-04-01T01:16:27.415Z,9.10
2023-04-01T01:19:49.635Z,9.00
2023-04-01T01:23:37.884Z,9.00
2023-04-01T01:26:58.803Z,8.90
2023-04-01T01:30:08.537Z,8.90
2023-04-01T01:33:11.430Z,8.90
2023-04-01T01:36:17.209Z,9.00
2023-04-01T01:39:21.599Z,9.30
2023-04-01T01:42:27.557Z,9.40
2023-04-01T01:45:32.230Z,9.40
2023-04-01T01:48:37.636Z,9.40
2023-04-01T01:51:41.336Z,9.30
2023-04-01T01:54:52.722Z,9.30
2023-04-01T01:58:00.935Z,9.20
2023-04-01T02:01:07.438Z,9.20
2023-04-01T02:04:12.369Z,9.10
2023-04-01T02:07:37.341Z,9.10
2023-04-01T02:10:45.244Z,9.00
2023-04-01T02:13:57.761Z,9.00
2023-04-01T02:17:08.729Z,9.10
2023-04-01T02:20:19.093Z,9.00
2023-04-01T02:23:22.489Z,9.00
2023-04-01T02:26:28.037Z,9.00
2023-04-01T02:29:31.436Z,9.00
2023-04-01T02:32:39.176Z,9.00
2023-04-01T02:35:42.633Z,9.00
2023-04-01T02:38:48.083Z,9.00
2023-04-01T02:41:51.176Z,9.00
2023-04-01T02:44:54.179Z,8.90
2023-04-01T02:47:57.393Z,8.90
2023-04-01T02:51:00.340Z,8.80
2023-04-01T02:54:04.471Z,8.80
2023-04-01T02:57:07.751Z,8.70
2023-04-01T03:00:12.592Z,8.80
2023-04-01T03:03:15.947Z,8.80
2023-04-01T03:06:19.294Z,8.80
2023-04-01T03:09:22.583Z,8.80
2023-04-01T03:12:25.565Z,8.70
2023-04-01T03:15:28.656Z,8.60
2023-04-01T03:18:31.265Z,8.60
2023-04-01T03:21:34.643Z,8.60
2023-04-01T03:24:37.620Z,8.50
2023-04-01T03:27:40.714Z,8.50
2023-04-01T03:30:43.832Z,8.40
2023-04-01T03:33:47.208Z,8.40
2023-04-01T03:36:50.084Z,8.30
2023-04-01T03:39:53.585Z,8.30
2023-04-01T03:42:57.557Z,8.30
2023-04-01T03:46:00.713Z,8.20
2023-04-01T03:49:04.394Z,8.20
2023-04-01T03:52:11.886Z,8.30
2023-04-01T03:55:14.781Z,8.20
2023-04-01T03:58:17.866Z,8.20
2023-04-01T04:01:22.799Z,8.10
2023-04-01T04:04:26.003Z,8.10
2023-04-01T04:07:29.084Z,8.10
2023-04-01T04:10:32.519Z,8.00
2023-04-01T04:13:37.320Z,8.00
2023-04-01T04:16:40.405Z,8.00
2023-04-01T04:19:43.906Z,8.00
2023-04-01T04:22:47.512Z,8.00
2023-04-01T04:26:03.609Z,7.90
2023-04-01T04:29:06.806Z,7.90
2023-04-01T04:32:09.684Z,8.00
2023-04-01T04:35:12.978Z,8.00
2023-04-01T04:38:16.074Z,8.00
2023-04-01T04:41:20.456Z,7.90
2023-04-01T04:44:23.887Z,7.90
2023-04-01T04:47:26.900Z,7.90
2023-04-01T04:50:29.865Z,7.90
2023-04-01T04:53:33.167Z,7.90
2023-04-01T04:56:37.277Z,8.00
2023-04-01T04:59:40.366Z,8.00
2023-04-01T05:02:43.727Z,8.00
2023-04-01T05:05:54.741Z,8.00
2023-04-01T05:08:58.342Z,8.00
2023-04-01T05:12:01.639Z,8.00
2023-04-01T05:15:08.426Z,8.00
2023-04-01T05:18:11.297Z,8.00
2023-04-01T05:21:16.437Z,8.10
2023-04-01T05:24:19.428Z,8.20
2023-04-01T05:27:22.928Z,8.20
2023-04-01T05:30:25.919Z,8.30
2023-04-01T05:33:29.930Z,8.30
2023-04-01T05:36:33.239Z,8.30
2023-04-01T05:39:40.108Z,8.40
2023-04-01T05:42:43.402Z,8.50
2023-04-01T05:45:46.513Z,8.60
2023-04-01T05:48:49.895Z,8.80
2023-04-01T05:51:52.879Z,8.90
2023-04-01T05:54:55.872Z,9.00
2023-04-01T05:57:59.059Z,9.10
2023-04-01T06:01:11.252Z,9.30
2023-04-01T06:04:19.395Z,9.40
2023-04-01T06:07:22.467Z,9.50
2023-04-01T06:10:50.542Z,9.60
2023-04-01T06:14:12.392Z,9.80
2023-04-01T06:17:36.778Z,9.80
2023-04-01T06:20:55.010Z,9.90
2023-04-01T06:24:14.308Z,10.00
2023-04-01T06:27:48.092Z,10.00
2023-04-01T06:31:20.208Z,10.00
2023-04-01T06:34:26.549Z,10.00
2023-04-01T06:38:00.543Z,9.90
2023-04-01T06:41:26.775Z,10.00
2023-04-01T06:44:32.531Z,10.10
2023-04-01T06:47:45.581Z,10.30
2023-04-01T06:51:08.848Z,10.40
2023-04-01T06:54:36.489Z,10.40
2023-04-01T06:57:55.145Z,10.50
2023-04-01T07:01:05.240Z,10.50
2023-04-01T07:04:27.149Z,10.60
2023-04-01T07:07:54.596Z,10.80
2023-04-01T07:11:05.464Z,10.90
2023-04-01T07:14:34.870Z,11.00
2023-04-01T07:17:41.065Z,11.00
2023-04-01T07:20:44.327Z,11.10
2023-04-01T07:23:48.951Z,11.20
2023-04-01T07:26:58.288Z,11.20
2023-04-01T07:30:03.230Z,11.30
2023-04-01T07:33:14.719Z,11.30
2023-04-01T07:36:39.411Z,11.50
2023-04-01T07:39:54.382Z,11.50
2023-04-01T07:43:27.883Z,11.30
2023-04-01T07:46:51.153Z,11.40
2023-04-01T07:50:07.261Z,11.40
2023-04-01T07:53:31.648Z,11.50
2023-04-01T07:56:52.974Z,11.40
2023-04-01T08:00:08.647Z,11.40
2023-04-01T08:03:33.454Z,11.40
2023-04-01T08:07:08.691Z,11.60
2023-04-01T08:10:33.704Z,11.70
2023-04-01T08:13:47.949Z,11.70
2023-04-01T08:17:06.080Z,11.70
2023-04-01T08:20:36.513Z,12.00
2023-04-01T08:23:46.372Z,12.50
2023-04-01T08:26:54.780Z,12.90
2023-04-01T08:30:18.556Z,12.90
2023-04-01T08:33:31.155Z,12.50
2023-04-01T08:36:38.875Z,12.50
2023-04-01T08:39:49.848Z,12.70
2023-04-01T08:43:17.532Z,13.30
2023-04-01T08:46:44.574Z,13.50
2023-04-01T08:50:12.744Z,13.20
2023-04-01T08:53:30.781Z,13.30
2023-04-01T08:56:59.263Z,13.70
2023-04-01T09:00:47.012Z,14.20
2023-04-01T09:04:05.074Z,13.90
2023-04-01T09:07:27.089Z,14.40
2023-04-01T09:10:48.420Z,15.20
2023-04-01T09:14:10.657Z,15.70
2023-04-01T09:17:45.877Z,15.80
2023-04-01T09:21:12.541Z,15.90
2023-04-01T09:24:27.921Z,16.00
2023-04-01T09:27:51.597Z,16.20
2023-04-01T09:31:18.609Z,16.40
2023-04-01T09:34:42.745Z,16.00
2023-04-01T09:37:49.407Z,16.90
2023-04-01T09:41:08.996Z,17.60
2023-04-01T09:44:15.358Z,18.30
2023-04-01T09:47:30.066Z,18.80
2023-04-01T09:50:43.769Z,18.80
2023-04-01T09:53:59.356Z,18.00
2023-04-01T09:57:47.292Z,18.10
2023-04-01T10:01:00.723Z,17.80
2023-04-01T10:04:26.242Z,18.50
2023-04-01T10:07:38.241Z,18.40
2023-04-01T10:11:02.453Z,19.20
2023-04-01T10:14:33.166Z,20.00
2023-04-01T10:18:07.109Z,20.60
2023-04-01T10:21:27.378Z,19.90
2023-04-01T10:24:45.217Z,20.60
2023-04-01T10:27:57.314Z,20.30
2023-04-01T10:31:00.728Z,20.70
2023-04-01T10:34:34.531Z,21.20
2023-04-01T10:37:58.407Z,20.50
2023-04-01T10:41:15.525Z,20.60
2023-04-01T10:44:26.922Z,21.40
2023-04-01T10:47:35.869Z,21.20
2023-04-01T10:50:59.945Z,22.00
2023-04-01T10:54:50.334Z,20.70
2023-04-01T10:58:10.116Z,20.30
2023-04-01T11:02:00.666Z,21.00
2023-04-01T11:05:41.492Z,22.30
2023-04-01T11:08:50.010Z,22.00
2023-04-01T11:12:12.042Z,21.50
2023-04-01T11:15:58.060Z,20.90
2023-04-01T11:19:07.178Z,20.50
2023-04-01T11:22:16.322Z,20.20
2023-04-01T11:25:37.625Z,19.70
2023-04-01T11:28:57.313Z,19.50
2023-04-01T11:32:09.314Z,19.40
2023-04-01T11:35:33.942Z,19.60
2023-04-01T11:39:26.357Z,20.10
2023-04-01T11:43:07.442Z,21.40
2023-04-01T11:46:33.139Z,21.80
2023-04-01T11:49:55.199Z,21.10
2023-04-01T11:53:20.818Z,20.00
2023-04-01T11:56:50.971Z,18.40
2023-04-01T12:00:12.306Z,17.90
2023-04-01T12:03:42.613Z,18.20
2023-04-01T12:07:04.322Z,20.20
2023-04-01T12:10:19.396Z,20.70
2023-04-01T12:13:34.159Z,20.40
2023-04-01T12:16:49.070Z,19.80
2023-04-01T12:20:13.039Z,19.10
2023-04-01T12:23:38.942Z,18.70
2023-04-01T12:27:07.763Z,18.40
2023-04-01T12:30:16.976Z,18.40
2023-04-01T12:33:29.382Z,18.30
2023-04-01T12:37:05.444Z,18.60
2023-04-01T12:40:33.718Z,18.80
2023-04-01T12:44:10.506Z,18.90
2023-04-01T12:47:21.585Z,19.30
2023-04-01T12:50:57.965Z,18.90
2023-04-01T12:54:28.528Z,19.10
2023-04-01T12:57:58.013Z,19.30
2023-04-01T13:01:12.799Z,19.80
2023-04-01T13:04:34.906Z,19.10
2023-04-01T13:08:06.977Z,18.70
2023-04-01T13:11:51.951Z,17.90
2023-04-01T13:15:27.774Z,17.20
2023-04-01T13:18:54.959Z,15.20
2023-04-01T13:22:08.100Z,14.30
2023-04-01T13:25:59.199Z,13.90
2023-04-01T13:29:38.047Z,13.70
2023-04-01T13:32:59.413Z,13.90
2023-04-01T13:36:19.676Z,14.20
2023-04-01T13:39:50.288Z,14.50
2023-04-01T13:43:00.043Z,14.50
2023-04-01T13:46:03.370Z,14.90
2023-04-01T13:49:40.324Z,15.00
2023-04-01T13:53:17.414Z,15.10
2023-04-01T13:56:23.585Z,15.80
2023-04-01T13:59:58.002Z,16.30
2023-04-01T14:03:30.230Z,16.60
2023-04-01T14:06:41.560Z,17.10
2023-04-01T14:10:02.262Z,17.40
2023-04-01T14:13:19.695Z,17.60
2023-04-01T14:16:23.132Z,17.90
2023-04-01T14:19:30.280Z,18.60
2023-04-01T14:22:52.122Z,18.90
2023-04-01T14:26:28.289Z,20.00
2023-04-01T14:29:57.483Z,19.90
2023-04-01T14:33:21.360Z,20.20
2023-04-01T14:36:51.794Z,21.20
2023-04-01T14:40:21.619Z,21.90
2023-04-01T14:43:56.665Z,22.50
2023-04-01T14:47:35.410Z,21.70
2023-04-01T14:50:52.294Z,21.60
2023-04-01T14:54:13.413Z,21.40
2023-04-01T14:57:25.772Z,21.40
2023-04-01T15:00:32.325Z,22.30
2023-04-01T15:03:57.202Z,22.20
2023-04-01T15:07:08.688Z,22.20
2023-04-01T15:10:31.346Z,21.50
2023-04-01T15:14:00.184Z,20.70
2023-04-01T15:17:22.389Z,20.20
2023-04-01T15:21:03.051Z,20.00
2023-04-01T15:24:34.918Z,20.60
2023-04-01T15:27:52.347Z,21.40
2023-04-01T15:30:59.567Z,21.60
2023-04-01T15:34:41.231Z,21.80
2023-04-01T15:38:08.183Z,22.20
2023-04-01T15:41:14.251Z,22.40
2023-04-01T15:44:52.369Z,22.20
2023-04-01T15:48:27.602Z,21.60
2023-04-01T15:51:49.848Z,22.60
2023-04-01T15:54:58.677Z,22.80
2023-04-01T15:58:27.772Z,22.20
2023-04-01T16:01:49.463Z,19.50
2023-04-01T16:04:58.842Z,18.40
2023-04-01T16:08:32.133Z,17.90
2023-04-01T16:11:56.118Z,17.30
2023-04-01T16:15:30.904Z,16.60
2023-04-01T16:19:06.298Z,15.90
2023-04-01T16:22:28.746Z,15.50
2023-04-01T16:25:43.207Z,15.70
2023-04-01T16:29:05.069Z,15.90
2023-04-01T16:32:44.798Z,15.80
2023-04-01T16:36:19.107Z,15.70
2023-04-01T16:39:47.900Z,15.30
2023-04-01T16:42:54.378Z,14.60
2023-04-01T16:46:22.581Z,14.30
2023-04-01T16:50:07.017Z,14.00
2023-04-01T16:53:17.170Z,13.70
2023-04-01T16:56:38.588Z,13.50
2023-04-01T17:00:19.878Z,13.50
2023-04-01T17:03:33.831Z,13.30
2023-04-01T17:06:49.620Z,13.20
2023-04-01T17:09:59.260Z,13.00
2023-04-01T17:13:37.599Z,12.90
2023-04-01T17:16:41.088Z,12.70
2023-04-01T17:19:51.242Z,12.60
2023-04-01T17:23:21.264Z,12.40
2023-04-01T17:26:48.110Z,12.30
2023-04-01T17:30:26.231Z,12.20
2023-04-01T17:33:33.114Z,12.20
2023-04-01T17:37:01.691Z,12.10
2023-04-01T17:40:30.074Z,12.10
2023-04-01T17:43:50.777Z,12.00
2023-04-01T17:47:15.685Z,11.90
2023-04-01T17:50:30.859Z,11.70
2023-04-01T17:53:57.292Z,11.60
2023-04-01T17:57:38.304Z,11.60
2023-04-01T18:00:54.668Z,11.60
2023-04-01T18:04:28.079Z,11.60
2023-04-01T18:07:45.915Z,11.70
2023-04-01T18:11:20.648Z,11.70
2023-04-01T18:14:43.092Z,11.60
2023-04-01T18:18:20.078Z,11.50
2023-04-01T18:21:30.547Z,11.40
2023-04-01T18:25:01.924Z,11.40
2023-04-01T18:28:22.101Z,11.30
2023-04-01T18:31:34.205Z,11.30
2023-04-01T18:35:14.563Z,11.20
2023-04-01T18:38:31.572Z,11.10
2023-04-01T18:41:58.830Z,11.00
2023-04-01T18:45:19.642Z,11.00
2023-04-01T18:48:58.054Z,11.00
2023-04-01T18:52:24.392Z,10.80
2023-04-01T18:55:34.931Z,10.70
2023-04-01T18:58:50.952Z,10.60
2023-04-01T19:02:22.306Z,10.60
2023-04-01T19:05:30.540Z,10.60
2023-04-01T19:08:38.314Z,10.70
2023-04-01T19:12:13.148Z,10.60
2023-04-01T19:15:43.699Z,10.60
2023-04-01T19:19:08.478Z,10.60
2023-04-01T19:22:34.001Z,10.50
2023-04-01T19:25:38.726Z,10.50
2023-04-01T19:28:58.312Z,10.40
2023-04-01T19:32:33.366Z,10.30
2023-04-01T19:35:44.356Z,10.20
2023-04-01T19:38:56.433Z,10.20
2023-04-01T19:42:07.906Z,10.20
2023-04-01T19:45:24.329Z,10.20
2023-04-01T19:48:31.198Z,10.20
2023-04-01T19:52:06.345Z,10.10
2023-04-01T19:55:23.979Z,10.10
2023-04-01T19:58:47.236Z,10.10
2023-04-01T20:02:24.336Z,10.00
2023-04-01T20:06:21.902Z,9.90
2023-04-01T20:09:36.656Z,10.00
2023-04-01T20:12:42.614Z,9.90
2023-04-01T20:15:49.493Z,9.80
2023-04-01T20:19:02.112Z,9.80
2023-04-01T20:22:23.938Z,9.90
2023-04-01T20:25:30.204Z,9.90
2023-04-01T20:28:46.621Z,9.80
2023-04-01T20:32:13.842Z,9.70
2023-04-01T20:35:41.934Z,9.70
2023-04-01T20:39:12.983Z,9.60
2023-04-01T20:42:36.964Z,9.60
2023-04-01T20:45:56.897Z,9.60
2023-04-01T20:49:22.376Z,9.60
2023-04-01T20:52:35.764Z,9.60
2023-04-01T20:55:48.523Z,9.60
2023-04-01T20:58:56.218Z,9.70
2023-04-01T21:02:38.555Z,9.80
2023-04-01T21:06:06.366Z,9.60
2023-04-01T21:09:21.374Z,9.40
2023-04-01T21:12:32.974Z,9.30
2023-04-01T21:16:09.360Z,9.10
2023-04-01T21:19:35.877Z,9.00
2023-04-01T21:22:54.322Z,8.90
2023-04-01T21:26:15.334Z,8.80
2023-04-01T21:29:51.504Z,8.70
2023-04-01T21:33:04.639Z,8.70
2023-04-01T21:36:22.725Z,8.70
2023-04-01T21:39:43.683Z,8.60
2023-04-01T21:42:52.802Z,8.70
2023-04-01T21:46:16.978Z,8.70
2023-04-01T21:49:44.866Z,8.70
2023-04-01T21:52:57.288Z,8.70
2023-04-01T21:56:54.439Z,8.70
2023-04-01T22:00:12.874Z,8.70
2023-04-01T22:03:33.888Z,8.60
2023-04-01T22:07:15.896Z,8.50
2023-04-01T22:10:31.282Z,8.50
2023-04-01T22:13:47.677Z,8.60
2023-04-01T22:17:04.897Z,8.50
2023-04-01T22:20:46.493Z,8.50
2023-04-01T22:23:55.008Z,8.50
2023-04-01T22:27:08.852Z,8.60
2023-04-01T22:30:24.636Z,8.60
2023-04-01T22:33:33.670Z,8.60
2023-04-01T22:37:03.997Z,8.60
2023-04-01T22:40:09.958Z,8.70
2023-04-01T22:43:22.682Z,8.60
2023-04-01T22:46:45.218Z,8.50
2023-04-01T22:50:03.685Z,8.50
2023-04-01T22:53:27.759Z,8.60
2023-04-01T22:56:49.592Z,8.60
2023-04-01T22:59:59.543Z,8.60
2023-04-01T23:03:06.683Z,8.70
2023-04-01T23:06:22.208Z,8.70
2023-04-01T23:09:32.777Z,8.70
2023-04-01T23:12:36.507Z,8.80
2023-04-01T23:15:40.143Z,8.80
2023-04-01T23:19:14.819Z,8.70
2023-04-01T23:22:41.563Z,8.70
2023-04-01T23:26:01.960Z,8.70
2023-04-01T23:29:07.302Z,8.70
2023-04-01T23:32:23.821Z,8.70
2023-04-01T23:35:27.410Z,8.60
2023-04-01T23:38:30.392Z,8.50
2023-04-01T23:41:34.721Z,8.40
2023-04-01T23:44:38.623Z,8.50
2023-04-01T23:47:42.674Z,8.40
2023-04-01T23:50:46.963Z,8.40
2023-04-01T23:54:04.623Z,8.40
2023-04-01T23:57:14.904Z,8.40
